Time;durP1;ratioP1;P1;durP2;ratioP2;P2;SDS_P1;SDS_P2;PMS_P1;PMS_P2;Temp;Humidity;BMP_temperature;BMP_pressure;BME280_temperature;BME280_humidity;BME280_pressure;Samples;Min_cycle;Max_cycle;Signal;HPM_P1;HPM_P2
2021/11/16 00:02:08;;;;;;;47.50;25.90;;;6.70;99.90;;;;;;5040064;28;20037;-77
2021/11/16 00:04:35;;;;;;;54.47;29.42;;;6.70;99.90;;;;;;5038108;28;20503;-77
2021/11/16 00:07:02;;;;;;;54.95;29.42;;;6.70;99.90;;;;;;5036589;28;20045;-77
2021/11/16 00:09:28;;;;;;;49.60;28.98;;;6.70;99.90;;;;;;5020547;28;20044;-77
2021/11/16 00:11:55;;;;;;;56.10;29.75;;;6.70;99.90;;;;;;5038633;28;20040;-77
2021/11/16 00:14:22;;;;;;;51.05;25.98;;;6.70;99.90;;;;;;5038758;28;20124;-77
2021/11/16 00:16:48;;;;;;;51.10;26.52;;;6.60;99.90;;;;;;5036664;28;20041;-77
2021/11/16 00:19:16;;;;;;;47.00;25.67;;;6.60;99.90;;;;;;5038960;28;20033;-77
2021/11/16 00:21:44;;;;;;;51.80;27.20;;;6.70;99.90;;;;;;5038342;28;20374;-77
2021/11/16 00:24:14;;;;;;;56.60;29.75;;;6.70;99.90;;;;;;5002014;28;20053;-77
2021/11/16 00:26:42;;;;;;;54.80;28.63;;;6.70;99.90;;;;;;5036177;28;20026;-77
2021/11/16 00:29:08;;;;;;;52.33;27.95;;;6.60;99.90;;;;;;5040533;28;20037;-77
2021/11/16 00:31:36;;;;;;;47.45;25.40;;;6.70;99.90;;;;;;5034848;28;20033;-77
2021/11/16 00:34:03;;;;;;;51.72;26.70;;;6.60;99.90;;;;;;5037272;28;20492;-77
2021/11/16 00:36:31;;;;;;;50.33;27.40;;;6.70;99.90;;;;;;5035266;28;20036;-77
2021/11/16 00:38:59;;;;;;;54.05;27.60;;;6.70;99.90;;;;;;5021987;28;20038;-77
2021/11/16 00:41:25;;;;;;;54.63;29.52;;;6.60;99.90;;;;;;5039525;28;20033;-77
2021/11/16 00:43:52;;;;;;;54.40;27.95;;;6.60;99.90;;;;;;5018440;28;20037;-77
2021/11/16 00:46:20;;;;;;;45.88;25.30;;;6.60;99.90;;;;;;5036892;28;20500;-77
2021/11/16 00:48:46;;;;;;;52.70;25.48;;;6.60;99.90;;;;;;5022100;28;20044;-78
2021/11/16 00:51:13;;;;;;;55.50;30.50;;;6.60;99.90;;;;;;5023178;28;20041;-77
2021/11/16 00:53:41;;;;;;;61.83;32.92;;;6.60;99.90;;;;;;5019803;28;20040;-77
2021/11/16 00:56:09;;;;;;;60.55;32.50;;;6.60;99.90;;;;;;5036600;28;20040;-78
2021/11/16 00:58:37;;;;;;;61.28;32.10;;;6.60;99.90;;;;;;5040274;28;20033;-77
2021/11/16 01:01:04;;;;;;;61.47;31.77;;;6.60;99.90;;;;;;5033400;28;20052;-77
2021/11/16 01:03:31;;;;;;;64.35;35.13;;;6.60;99.90;;;;;;5039432;28;20499;-77
2021/11/16 01:05:58;;;;;;;71.85;34.30;;;6.60;99.90;;;;;;5037157;28;20052;-77
2021/11/16 01:08:24;;;;;;;62.05;31.80;;;6.50;99.90;;;;;;5035031;28;20041;-77
2021/11/16 01:10:53;;;;;;;57.97;29.67;;;6.50;99.90;;;;;;5022020;28;20041;-78
2021/11/16 01:13:20;;;;;;;62.33;31.00;;;6.50;99.90;;;;;;5024623;28;20041;-78
2021/11/16 01:15:49;;;;;;;55.33;29.23;;;6.50;99.90;;;;;;5037763;28;20037;-77
2021/11/16 01:18:16;;;;;;;59.83;31.95;;;6.50;99.90;;;;;;5035079;28;20029;-77
2021/11/16 01:20:45;;;;;;;62.97;31.33;;;6.50;99.90;;;;;;5019468;28;20481;-77
2021/11/16 01:23:13;;;;;;;69.25;35.90;;;6.50;99.90;;;;;;5035480;28;20035;-77
2021/11/16 01:25:42;;;;;;;58.33;30.95;;;6.50;99.90;;;;;;5035491;28;20116;-77
2021/11/16 01:28:12;;;;;;;56.58;28.52;;;6.50;99.90;;;;;;5035110;28;20571;-77
2021/11/16 01:30:42;;;;;;;54.17;27.85;;;6.50;99.90;;;;;;5020015;28;20049;-77
2021/11/16 01:33:15;;;;;;;52.92;27.35;;;6.50;99.90;;;;;;5037678;28;20033;-77
2021/11/16 01:35:43;;;;;;;53.33;27.90;;;6.50;99.90;;;;;;5033841;28;20508;-77
2021/11/16 01:38:12;;;;;;;58.40;29.88;;;6.50;99.90;;;;;;5035563;28;20036;-77
2021/11/16 01:40:40;;;;;;;54.47;30.23;;;6.50;99.90;;;;;;5033771;28;20033;-77
2021/11/16 01:43:09;;;;;;;57.97;29.42;;;6.50;99.90;;;;;;5034807;28;20026;-78
2021/11/16 01:45:37;;;;;;;55.50;29.77;;;6.50;99.90;;;;;;5037172;28;20052;-77
2021/11/16 01:48:04;;;;;;;53.78;28.70;;;6.50;99.90;;;;;;5037829;28;20037;-78
2021/11/16 01:50:30;;;;;;;54.83;29.80;;;6.50;99.90;;;;;;5037507;28;20276;-77
2021/11/16 01:52:58;;;;;;;56.83;29.75;;;6.60;99.90;;;;;;5035901;28;20037;-77
2021/11/16 01:55:25;;;;;;;49.72;25.67;;;6.60;99.90;;;;;;5014435;28;20362;-77
2021/11/16 01:57:53;;;;;;;54.83;28.23;;;6.60;99.90;;;;;;5037328;28;20036;-77
2021/11/16 02:00:32;;;;;;;61.50;29.75;;;6.60;99.90;;;;;;5037331;28;20062;-78
2021/11/16 02:02:59;;;;;;;63.55;30.92;;;6.60;99.90;;;;;;5036040;28;20281;-77
2021/11/16 02:05:46;;;;;;;60.60;30.92;;;6.60;99.90;;;;;;5032869;28;20473;-78
2021/11/16 02:08:14;;;;;;;53.60;27.85;;;6.60;99.90;;;;;;5029530;28;20045;-77
2021/11/16 02:10:46;;;;;;;52.22;27.27;;;6.60;99.90;;;;;;5035378;28;20041;-78
2021/11/16 02:13:17;;;;;;;54.60;27.85;;;6.60;99.90;;;;;;5019742;28;20041;-77
2021/11/16 02:15:44;;;;;;;50.85;27.42;;;6.60;99.90;;;;;;5034974;28;20030;-77
2021/11/16 02:18:12;;;;;;;53.60;26.25;;;6.60;99.90;;;;;;5034598;28;20442;-77
2021/11/16 02:20:42;;;;;;;48.60;25.38;;;6.60;99.90;;;;;;5017131;28;20033;-77
2021/11/16 02:23:09;;;;;;;50.55;25.83;;;6.60;99.90;;;;;;5040087;28;20473;-77
2021/11/16 02:25:36;;;;;;;47.33;25.20;;;6.60;99.90;;;;;;5036074;28;20049;-77
2021/11/16 02:28:04;;;;;;;48.85;25.25;;;6.60;99.90;;;;;;5014835;28;20045;-77
2021/11/16 02:30:30;;;;;;;46.30;23.77;;;6.60;99.90;;;;;;5034147;28;20041;-77
2021/11/16 02:32:57;;;;;;;44.63;22.85;;;6.60;99.90;;;;;;5038509;28;20045;-77
2021/11/16 02:35:25;;;;;;;47.30;25.02;;;6.70;99.90;;;;;;5034055;28;20055;-77
2021/11/16 02:37:53;;;;;;;48.13;24.48;;;6.70;99.90;;;;;;5034417;28;20041;-78
2021/11/16 02:40:19;;;;;;;52.83;25.08;;;6.70;99.90;;;;;;5033960;28;20384;-77
2021/11/16 02:42:46;;;;;;;49.10;25.05;;;6.70;99.90;;;;;;5036497;28;20045;-77
2021/11/16 02:45:15;;;;;;;46.15;24.30;;;6.70;99.90;;;;;;5034013;28;20025;-77
2021/11/16 02:47:42;;;;;;;45.33;25.48;;;6.70;99.90;;;;;;5034904;28;20029;-77
2021/11/16 02:50:09;;;;;;;51.03;25.05;;;6.70;99.90;;;;;;5036492;28;20196;-77
2021/11/16 02:52:36;;;;;;;47.88;24.60;;;6.70;99.90;;;;;;5034784;28;20044;-77
2021/11/16 02:55:05;;;;;;;50.53;25.83;;;6.70;99.90;;;;;;5032131;28;20060;-78
2021/11/16 02:57:32;;;;;;;54.63;28.35;;;6.70;99.90;;;;;;5035722;28;20025;-77
2021/11/16 03:00:00;;;;;;;54.67;27.63;;;6.80;99.90;;;;;;5036599;28;20036;-77
2021/11/16 03:02:27;;;;;;;49.03;25.10;;;6.80;99.90;;;;;;5036638;28;20025;-78
2021/11/16 03:04:53;;;;;;;47.22;23.35;;;6.70;99.90;;;;;;5037513;28;20037;-78
2021/11/16 03:07:35;;;;;;;46.10;25.10;;;6.70;99.90;;;;;;5038960;28;20041;-77
2021/11/16 03:10:03;;;;;;;49.75;25.48;;;6.70;99.90;;;;;;5038512;28;20469;-78
2021/11/16 03:12:31;;;;;;;49.75;25.08;;;6.70;99.90;;;;;;5040119;28;20044;-77
2021/11/16 03:14:58;;;;;;;48.65;25.10;;;6.80;99.90;;;;;;5023922;28;20040;-78
2021/11/16 03:17:26;;;;;;;52.08;26.65;;;6.80;99.90;;;;;;5004845;28;20506;-78
2021/11/16 03:19:53;;;;;;;53.80;25.88;;;6.70;99.90;;;;;;5040516;28;20044;-77
2021/11/16 03:22:26;;;;;;;51.97;26.95;;;6.70;99.90;;;;;;5040041;28;20029;-78
2021/11/16 03:24:56;;;;;;;55.78;27.10;;;6.70;99.90;;;;;;5038648;28;20053;-77
2021/11/16 03:27:29;;;;;;;51.72;26.83;;;6.70;99.90;;;;;;5018269;28;20041;-76
2021/11/16 03:29:58;;;;;;;52.53;27.67;;;6.70;99.90;;;;;;5022852;28;20042;-77
2021/11/16 03:32:33;;;;;;;61.75;30.60;;;6.70;99.90;;;;;;5037660;28;20029;-77
2021/11/16 03:35:01;;;;;;;57.58;28.08;;;6.70;99.90;;;;;;5040498;28;20412;-77
2021/11/16 03:37:37;;;;;;;57.70;28.83;;;6.70;99.90;;;;;;5041572;28;20037;-77
2021/11/16 03:40:05;;;;;;;58.28;29.33;;;6.70;99.90;;;;;;5039623;28;20481;-77
2021/11/16 03:42:34;;;;;;;60.78;28.88;;;6.60;99.90;;;;;;5038378;28;20029;-78
2021/11/16 03:45:01;;;;;;;54.65;28.00;;;6.60;99.90;;;;;;5038618;28;20041;-77
2021/11/16 03:47:27;;;;;;;52.85;28.65;;;6.60;99.90;;;;;;5023195;28;20392;-76
2021/11/16 03:49:56;;;;;;;52.33;25.88;;;6.60;99.90;;;;;;5020172;28;20496;-76
2021/11/16 03:52:25;;;;;;;49.33;25.83;;;6.60;99.90;;;;;;5038236;28;20036;-76
2021/11/16 03:54:52;;;;;;;46.38;24.20;;;6.60;99.90;;;;;;5009294;28;20484;-76
2021/11/16 03:57:22;;;;;;;49.22;25.95;;;6.60;99.90;;;;;;5036413;28;20025;-76
2021/11/16 03:59:48;;;;;;;61.97;31.30;;;6.60;99.90;;;;;;5005739;28;20527;-78
2021/11/16 04:02:15;;;;;;;57.10;27.58;;;6.60;99.90;;;;;;5022746;28;20380;-77
2021/11/16 04:04:43;;;;;;;50.42;26.08;;;6.60;99.90;;;;;;5042258;28;20036;-78
2021/11/16 04:07:09;;;;;;;43.15;21.90;;;6.70;99.90;;;;;;5035700;28;20037;-78
2021/11/16 04:09:37;;;;;;;47.72;23.40;;;6.70;99.90;;;;;;5039215;28;20042;-78
2021/11/16 04:12:04;;;;;;;46.92;24.10;;;6.70;99.90;;;;;;5043279;28;20351;-79
2021/11/16 04:14:30;;;;;;;49.58;26.13;;;6.70;99.90;;;;;;5038456;28;20492;-77
2021/11/16 04:16:57;;;;;;;45.78;25.05;;;6.80;99.90;;;;;;5035680;28;20037;-77
2021/11/16 04:19:23;;;;;;;42.88;22.83;;;6.70;99.90;;;;;;5037377;28;20029;-77
2021/11/16 04:21:50;;;;;;;51.33;26.80;;;6.70;99.90;;;;;;5035625;28;20052;-77
2021/11/16 04:24:16;;;;;;;50.60;24.58;;;6.80;99.90;;;;;;5037466;28;20057;-77
2021/11/16 04:26:43;;;;;;;48.58;25.00;;;6.80;99.90;;;;;;5041382;28;20040;-77
2021/11/16 04:29:10;;;;;;;48.33;25.00;;;6.70;99.90;;;;;;5035851;28;20068;-77
2021/11/16 04:31:36;;;;;;;46.67;23.90;;;6.70;99.90;;;;;;5019473;28;20041;-78
2021/11/16 04:34:07;;;;;;;49.08;24.30;;;6.70;99.90;;;;;;5005053;28;20044;-78
2021/11/16 04:36:34;;;;;;;52.70;25.70;;;6.70;99.90;;;;;;5037935;28;20041;-79
2021/11/16 04:39:03;;;;;;;58.30;28.33;;;6.70;99.90;;;;;;5036304;28;20044;-78
2021/11/16 04:41:30;;;;;;;54.42;27.02;;;6.70;99.90;;;;;;5040454;28;20101;-78
2021/11/16 04:43:59;;;;;;;57.78;28.10;;;6.60;99.90;;;;;;5035649;28;20048;-78
2021/11/16 04:46:26;;;;;;;54.05;26.40;;;6.70;99.90;;;;;;5039177;28;20033;-78
2021/11/16 04:54:11;;;;;;;54.38;26.58;;;6.60;99.90;;;;;;5036835;28;20523;-78
2021/11/16 05:04:50;;;;;;;60.67;28.25;;;6.60;99.90;;;;;;5037278;28;20048;-78
2021/11/16 05:07:18;;;;;;;66.03;30.13;;;6.60;99.90;;;;;;5030406;28;20802;-78
2021/11/16 05:09:54;;;;;;;54.72;25.20;;;6.60;99.90;;;;;;5035514;28;20365;-78
2021/11/16 05:12:23;;;;;;;58.30;28.35;;;6.50;99.90;;;;;;5032777;28;20037;-78
2021/11/16 05:14:51;;;;;;;54.60;27.88;;;6.50;99.90;;;;;;5032339;28;20056;-78
2021/11/16 05:17:17;;;;;;;51.05;25.45;;;6.50;99.90;;;;;;5035910;28;20037;-78
2021/11/16 05:19:44;;;;;;;60.22;27.27;;;6.40;99.90;;;;;;5035708;28;20047;-78
2021/11/16 05:22:11;;;;;;;57.38;28.48;;;6.50;99.90;;;;;;5036122;28;20483;-78
2021/11/16 05:24:38;;;;;;;60.38;28.92;;;6.50;99.90;;;;;;5038198;28;20053;-78
2021/11/16 05:27:05;;;;;;;65.60;29.90;;;6.40;99.90;;;;;;5021876;28;20045;-78
2021/11/16 05:29:31;;;;;;;64.55;28.50;;;6.40;99.90;;;;;;5033569;28;20034;-77
2021/11/16 05:31:58;;;;;;;58.90;27.27;;;6.40;99.90;;;;;;5036346;28;20388;-76
2021/11/16 05:34:24;;;;;;;51.95;24.70;;;6.40;99.90;;;;;;5034970;28;20053;-77
2021/11/16 05:36:51;;;;;;;55.75;25.45;;;6.30;99.90;;;;;;5039136;28;20511;-76
2021/11/16 05:39:17;;;;;;;62.05;26.90;;;6.30;99.90;;;;;;5038555;28;20033;-76
2021/11/16 05:41:46;;;;;;;63.90;29.00;;;6.40;99.90;;;;;;5033859;28;20037;-77
2021/11/16 05:44:12;;;;;;;68.85;28.63;;;6.30;99.90;;;;;;5034308;28;20477;-77
2021/11/16 05:46:39;;;;;;;57.15;26.40;;;6.30;99.90;;;;;;5036510;28;20052;-78
2021/11/16 05:49:05;;;;;;;60.92;27.65;;;6.30;99.90;;;;;;5037643;28;20385;-77
2021/11/16 05:51:36;;;;;;;63.05;27.52;;;6.30;99.90;;;;;;5037942;28;20044;-77
2021/11/16 05:54:03;;;;;;;57.50;25.52;;;6.30;99.90;;;;;;5034890;28;20025;-77
2021/11/16 05:56:34;;;;;;;52.15;23.40;;;6.40;99.90;;;;;;5031287;28;20041;-77
2021/11/16 05:59:02;;;;;;;52.97;24.90;;;6.40;99.90;;;;;;5023642;28;20460;-77
2021/11/16 06:01:30;;;;;;;61.25;26.30;;;6.40;99.90;;;;;;5033350;28;20040;-77
2021/11/16 06:03:58;;;;;;;70.00;30.00;;;6.40;99.90;;;;;;5020677;28;20381;-77
2021/11/16 06:06:27;;;;;;;61.47;29.63;;;6.40;99.90;;;;;;5037777;28;20037;-77
2021/11/16 06:08:55;;;;;;;62.40;28.52;;;6.40;99.90;;;;;;5039084;28;20018;-78
2021/11/16 06:11:22;;;;;;;62.50;29.00;;;6.40;99.90;;;;;;5036423;28;20033;-77
2021/11/16 06:13:50;;;;;;;63.22;30.05;;;6.40;99.90;;;;;;5035922;28;20029;-76
2021/11/16 06:16:17;;;;;;;62.60;27.80;;;6.40;99.90;;;;;;5034299;28;20034;-76
2021/11/16 06:18:51;;;;;;;62.33;27.83;;;6.40;99.90;;;;;;5036030;28;20034;-77
2021/11/16 06:21:18;;;;;;;62.45;28.33;;;6.40;99.90;;;;;;5000571;28;20030;-77
2021/11/16 06:23:45;;;;;;;60.45;26.77;;;6.40;99.90;;;;;;5019666;28;20147;-77
2021/11/16 06:26:12;;;;;;;68.70;31.20;;;6.40;99.90;;;;;;5032712;28;20032;-77
2021/11/16 06:28:40;;;;;;;59.67;25.95;;;6.40;99.90;;;;;;5017351;28;20041;-76
2021/11/16 06:31:07;;;;;;;66.47;29.83;;;6.40;99.90;;;;;;5035227;28;20040;-79
2021/11/16 06:33:34;;;;;;;54.10;25.77;;;6.40;99.90;;;;;;5018705;28;20543;-78
2021/11/16 06:36:00;;;;;;;60.95;28.08;;;6.40;99.90;;;;;;5019591;28;20052;-77
2021/11/16 06:38:26;;;;;;;56.95;26.25;;;6.40;99.90;;;;;;5034498;28;20515;-77
2021/11/16 06:40:53;;;;;;;54.47;24.27;;;6.40;99.90;;;;;;5035449;28;20039;-77
2021/11/16 06:43:26;;;;;;;60.47;28.33;;;6.40;99.90;;;;;;5039458;28;20032;-78
2021/11/16 06:45:53;;;;;;;;;;;6.40;99.90;;;;;;5036539;28;20492;-77
2021/11/16 06:48:20;;;;;;;51.90;24.60;;;6.40;99.90;;;;;;5034824;28;19928;-77
2021/11/16 06:50:47;;;;;;;60.92;25.85;;;6.40;99.90;;;;;;5004813;28;20045;-77
2021/11/16 06:53:21;;;;;;;62.33;28.55;;;6.40;99.90;;;;;;5020431;28;20044;-77
2021/11/16 06:55:48;;;;;;;68.45;31.38;;;6.40;99.90;;;;;;5040647;28;20048;-77
2021/11/16 06:58:14;;;;;;;63.97;28.02;;;6.40;99.90;;;;;;5022329;28;20056;-77
2021/11/16 07:00:40;;;;;;;60.08;24.80;;;6.30;99.90;;;;;;5031162;28;20038;-77
2021/11/16 07:03:08;;;;;;;53.72;25.83;;;6.30;99.90;;;;;;5034109;28;20033;-78
2021/11/16 07:05:35;;;;;;;47.40;21.83;;;6.30;99.90;;;;;;5032882;28;20041;-77
2021/11/16 07:08:02;;;;;;;59.72;25.90;;;6.30;99.90;;;;;;5030665;28;20025;-77
2021/11/16 07:10:31;;;;;;;65.43;30.40;;;6.40;99.90;;;;;;5031689;28;20068;-78
2021/11/16 07:13:09;;;;;;;68.40;32.22;;;6.30;99.90;;;;;;5030028;28;20457;-77
2021/11/16 07:15:37;;;;;;;68.15;31.25;;;6.30;99.90;;;;;;5033908;28;20036;-77
2021/11/16 07:18:05;;;;;;;71.10;31.77;;;6.40;99.90;;;;;;5035309;28;20021;-77
2021/11/16 07:20:32;;;;;;;65.75;29.95;;;6.40;99.90;;;;;;5040280;28;20040;-75
2021/11/16 07:22:59;;;;;;;61.50;26.33;;;6.40;99.90;;;;;;5039665;28;20033;-76
2021/11/16 07:25:27;;;;;;;59.97;27.30;;;6.30;99.90;;;;;;5038399;28;20428;-76
2021/11/16 07:27:54;;;;;;;56.97;23.95;;;6.40;99.90;;;;;;5036545;28;20025;-75
2021/11/16 07:30:27;;;;;;;54.17;24.63;;;6.30;99.90;;;;;;5034924;28;20045;-75
2021/11/16 07:33:00;;;;;;;54.65;23.70;;;6.40;99.90;;;;;;5037705;28;20043;-75
2021/11/16 07:35:32;;;;;;;55.78;23.88;;;6.40;99.90;;;;;;5038109;28;20033;-77
2021/11/16 07:38:04;;;;;;;53.47;24.15;;;6.40;99.90;;;;;;5018878;28;20040;-76
2021/11/16 07:40:33;;;;;;;54.23;24.07;;;6.40;99.90;;;;;;5037917;28;20045;-76
2021/11/16 07:43:04;;;;;;;56.08;24.50;;;6.50;99.90;;;;;;5034379;28;20639;-76
2021/11/16 07:45:36;;;;;;;58.75;27.02;;;6.50;99.90;;;;;;5039900;28;20037;-76
2021/11/16 07:48:08;;;;;;;59.85;27.25;;;6.50;99.90;;;;;;5032803;28;20410;-76
2021/11/16 07:50:40;;;;;;;57.47;27.00;;;6.50;99.90;;;;;;5033815;28;20025;-76
2021/11/16 07:53:32;;;;;;;65.95;29.05;;;6.50;99.90;;;;;;5037678;28;20286;-76
2021/11/16 07:56:09;;;;;;;64.47;27.38;;;6.40;99.90;;;;;;5033882;28;20059;-76
2021/11/16 07:58:57;;;;;;;61.42;26.38;;;6.30;99.90;;;;;;5038884;28;20029;-76
2021/11/16 08:01:52;;;;;;;58.55;25.73;;;6.30;99.90;;;;;;5032679;28;20051;-76
2021/11/16 08:07:25;;;;;;;70.35;31.90;;;6.40;99.90;;;;;;5038731;28;20503;-76
2021/11/16 08:09:57;;;;;;;65.75;29.63;;;6.40;99.90;;;;;;5037362;28;20040;-76
2021/11/16 08:15:10;;;;;;;61.45;27.38;;;6.40;99.90;;;;;;5038588;28;20037;-76
2021/11/16 08:17:38;;;;;;;58.97;26.13;;;6.40;99.90;;;;;;5041075;28;20512;-78
2021/11/16 08:20:13;;;;;;;56.53;23.67;;;6.40;99.90;;;;;;5018674;28;20492;-76
2021/11/16 08:22:41;;;;;;;63.17;25.70;;;6.40;99.90;;;;;;5036737;28;20032;-76
2021/11/16 08:25:10;;;;;;;54.50;24.55;;;6.40;99.90;;;;;;5040102;28;20049;-76
2021/11/16 08:27:39;;;;;;;54.50;24.45;;;6.40;99.90;;;;;;5031925;28;20034;-76
2021/11/16 08:30:14;;;;;;;59.03;22.67;;;6.40;99.90;;;;;;5035124;28;20496;-76
2021/11/16 08:32:43;;;;;;;53.25;21.77;;;6.50;99.90;;;;;;5036892;28;20045;-76
2021/11/16 08:35:12;;;;;;;51.30;22.13;;;6.50;99.90;;;;;;5035309;28;20036;-76
2021/11/16 08:37:41;;;;;;;56.05;23.75;;;6.50;99.90;;;;;;5041405;28;20488;-76
2021/11/16 08:40:12;;;;;;;51.58;22.83;;;6.50;99.90;;;;;;5038685;28;20041;-76
2021/11/16 08:42:42;;;;;;;55.37;24.17;;;6.50;99.90;;;;;;5036178;28;20052;-76
2021/11/16 08:45:13;;;;;;;56.20;23.08;;;6.50;99.90;;;;;;5034271;28;20037;-76
2021/11/16 08:47:43;;;;;;;56.30;23.63;;;6.50;99.90;;;;;;5035873;28;20039;-75
2021/11/16 08:50:27;;;;;;;47.33;21.85;;;6.50;99.90;;;;;;5039642;28;20037;-76
2021/11/16 08:52:55;;;;;;;46.65;20.85;;;6.60;99.90;;;;;;5039002;28;20037;-76
2021/11/16 08:55:26;;;;;;;50.70;22.35;;;6.60;99.90;;;;;;5036254;28;20041;-76
2021/11/16 08:57:58;;;;;;;52.92;22.38;;;6.60;99.90;;;;;;5039362;28;20029;-76
2021/11/16 09:00:33;;;;;;;53.95;22.25;;;6.60;99.90;;;;;;5039308;28;20048;-76
2021/11/16 09:03:05;;;;;;;56.90;23.65;;;6.60;99.90;;;;;;5033885;28;20044;-76
2021/11/16 09:05:41;;;;;;;45.47;22.30;;;6.60;99.90;;;;;;5037984;28;20037;-76
2021/11/16 09:08:22;;;;;;;57.03;24.58;;;6.60;99.90;;;;;;5035071;28;20068;-76
2021/11/16 09:10:52;;;;;;;54.88;25.35;;;6.60;99.90;;;;;;5032701;28;20037;-76
2021/11/16 09:13:24;;;;;;;55.97;24.50;;;6.60;99.90;;;;;;5035490;28;20467;-76
2021/11/16 09:16:09;;;;;;;51.72;22.50;;;6.60;99.90;;;;;;5034783;28;20485;-76
2021/11/16 09:18:47;;;;;;;57.33;23.33;;;6.50;99.90;;;;;;5037766;28;20033;-75
2021/11/16 09:21:17;;;;;;;52.75;23.02;;;6.60;99.90;;;;;;5035478;28;20396;-76
2021/11/16 09:23:49;;;;;;;54.30;24.65;;;6.60;99.90;;;;;;5034889;28;20036;-76
2021/11/16 09:26:42;;;;;;;51.80;21.37;;;6.60;99.90;;;;;;5020843;28;20034;-76
2021/11/16 09:29:15;;;;;;;47.85;22.02;;;6.60;99.90;;;;;;5034426;28;20279;-76
2021/11/16 09:31:48;;;;;;;64.50;28.88;;;6.60;99.90;;;;;;5033398;28;20033;-76
2021/11/16 09:34:16;;;;;;;57.50;25.58;;;6.60;99.90;;;;;;5036035;28;20041;-76
2021/11/16 09:36:49;;;;;;;52.92;22.65;;;6.60;99.90;;;;;;5040082;28;20056;-76
2021/11/16 09:39:19;;;;;;;49.00;23.15;;;6.60;99.90;;;;;;5033723;28;20041;-76
2021/11/16 09:41:50;;;;;;;52.20;24.13;;;6.70;99.90;;;;;;5031350;28;20031;-76
2021/11/16 09:44:42;;;;;;;53.30;24.77;;;6.70;99.90;;;;;;5039604;28;20503;-77
2021/11/16 09:47:18;;;;;;;53.30;22.92;;;6.70;99.90;;;;;;5037024;28;20028;-77
2021/11/16 09:49:49;;;;;;;45.85;20.85;;;6.70;99.90;;;;;;5037054;28;20021;-77
2021/11/16 09:52:28;;;;;;;56.33;24.33;;;6.80;99.90;;;;;;5029536;28;20420;-77
2021/11/16 09:55:11;;;;;;;46.38;20.38;;;6.80;99.90;;;;;;5032803;28;20040;-76
2021/11/16 09:57:46;;;;;;;50.65;21.67;;;6.80;99.90;;;;;;5035452;28;20028;-77
2021/11/16 10:00:26;;;;;;;66.55;27.35;;;6.70;99.90;;;;;;5035651;28;20495;-76
2021/11/16 10:03:03;;;;;;;53.92;24.30;;;6.80;99.90;;;;;;5034602;28;20044;-77
2021/11/16 10:05:38;;;;;;;49.85;21.55;;;6.80;99.90;;;;;;5037499;28;20399;-77
2021/11/16 10:08:06;;;;;;;42.22;18.92;;;6.70;99.90;;;;;;5031838;28;20510;-77
2021/11/16 10:10:36;;;;;;;44.67;20.23;;;6.70;99.90;;;;;;5038494;28;20513;-77
2021/11/16 10:13:08;;;;;;;44.88;20.02;;;6.80;99.90;;;;;;5035862;28;20044;-77
2021/11/16 10:15:45;;;;;;;46.30;19.77;;;6.80;99.90;;;;;;5037265;28;20034;-77
2021/11/16 10:18:12;;;;;;;40.10;18.55;;;6.80;99.90;;;;;;5038406;28;20639;-77
2021/11/16 10:20:42;;;;;;;42.45;17.98;;;6.80;99.90;;;;;;5037886;28;20033;-76
2021/11/16 10:23:12;;;;;;;39.80;18.10;;;6.70;99.90;;;;;;5025683;28;20033;-77
2021/11/16 10:25:48;;;;;;;44.28;17.88;;;6.70;99.90;;;;;;5040314;28;20060;-77
2021/11/16 10:28:16;;;;;;;40.58;18.52;;;6.70;99.90;;;;;;5052718;28;20033;-77
2021/11/16 10:30:45;;;;;;;40.22;16.98;;;6.80;99.90;;;;;;5039379;28;20048;-77
2021/11/16 10:33:16;;;;;;;41.50;18.40;;;6.80;99.90;;;;;;5022027;28;20033;-77
2021/11/16 10:35:53;;;;;;;40.33;17.73;;;6.80;99.90;;;;;;5036365;28;20036;-77
2021/11/16 10:38:22;;;;;;;38.50;16.48;;;6.80;99.90;;;;;;5036411;28;20041;-77
2021/11/16 10:40:50;;;;;;;43.13;16.90;;;6.80;99.90;;;;;;5037898;28;20029;-77
2021/11/16 10:43:17;;;;;;;36.70;16.77;;;6.90;99.90;;;;;;5039281;28;20029;-77
2021/11/16 10:45:49;;;;;;;37.63;17.90;;;6.90;99.90;;;;;;5037159;28;20029;-77
2021/11/16 10:48:21;;;;;;;34.60;15.27;;;6.90;99.90;;;;;;5040289;28;20041;-76
2021/11/16 10:50:50;;;;;;;35.45;16.20;;;6.90;99.90;;;;;;5037191;28;20048;-77
2021/11/16 10:53:26;;;;;;;35.58;15.25;;;7.00;99.90;;;;;;5040136;28;20031;-77
2021/11/16 10:55:55;;;;;;;33.40;14.88;;;7.00;99.90;;;;;;5036030;28;20056;-77
2021/11/16 10:58:41;;;;;;;33.88;14.70;;;7.00;99.90;;;;;;5037256;28;20044;-77
2021/11/16 11:01:13;;;;;;;34.13;14.85;;;7.10;99.90;;;;;;5019977;28;20045;-77
2021/11/16 11:03:54;;;;;;;35.80;16.45;;;7.10;99.90;;;;;;5040803;28;20028;-77
2021/11/16 11:06:26;;;;;;;33.55;15.88;;;7.10;99.90;;;;;;5039110;28;20037;-78
2021/11/16 11:08:57;;;;;;;33.47;16.60;;;7.10;99.90;;;;;;5020838;28;20408;-76
2021/11/16 11:11:30;;;;;;;35.72;15.75;;;7.10;99.90;;;;;;5033407;28;20338;-76
2021/11/16 11:14:08;;;;;;;28.67;14.05;;;7.20;99.90;;;;;;5030966;28;20518;-76
2021/11/16 11:16:43;;;;;;;28.00;13.98;;;7.10;99.90;;;;;;5019612;28;20036;-74
2021/11/16 11:19:16;;;;;;;30.10;14.93;;;7.10;99.90;;;;;;5035571;28;20021;-76
2021/11/16 11:21:49;;;;;;;;;;;7.10;99.90;;;;;;5044099;28;20024;-76
2021/11/16 11:24:21;;;;;;;22.63;11.75;;;7.10;99.90;;;;;;5017721;28;19925;-75
2021/11/16 11:26:57;;;;;;;;;;;7.10;99.90;;;;;;5039703;28;20040;-75
2021/11/16 11:29:36;;;;;;;25.73;11.45;;;7.10;99.90;;;;;;5037723;28;19909;-75
2021/11/16 11:32:16;;;;;;;24.65;11.65;;;7.10;99.90;;;;;;5038917;28;20388;-76
2021/11/16 11:34:44;;;;;;;27.83;13.38;;;7.10;99.90;;;;;;5067178;28;20597;-79
2021/11/16 11:37:23;;;;;;;32.80;15.07;;;7.10;99.90;;;;;;5020428;28;20077;-78
2021/11/16 11:39:55;;;;;;;31.98;14.38;;;7.20;99.90;;;;;;5026514;28;20028;-78
2021/11/16 11:42:22;;;;;;;37.67;17.05;;;7.10;99.90;;;;;;5035822;28;20025;-78
2021/11/16 11:45:18;;;;;;;30.90;14.85;;;7.10;99.90;;;;;;5036858;28;20032;-77
2021/11/16 11:47:46;;;;;;;31.02;14.88;;;7.10;99.90;;;;;;5017701;28;20029;-78
2021/11/16 11:50:31;;;;;;;37.50;16.55;;;7.10;99.90;;;;;;5034944;28;20045;-78
2021/11/16 11:53:00;;;;;;;31.70;16.55;;;7.10;99.90;;;;;;5038256;28;20055;-78
2021/11/16 11:55:29;;;;;;;33.45;15.80;;;7.10;99.90;;;;;;5033282;28;20036;-76
2021/11/16 11:57:56;;;;;;;31.75;16.85;;;7.10;99.90;;;;;;5039279;28;20033;-76
2021/11/16 12:00:25;;;;;;;38.47;17.15;;;7.10;99.90;;;;;;5035382;28;20029;-75
2021/11/16 12:02:53;;;;;;;39.00;18.20;;;7.10;99.90;;;;;;5041617;28;20025;-75
2021/11/16 12:05:20;;;;;;;43.60;20.98;;;7.10;99.90;;;;;;5027321;28;20488;-75
2021/11/16 12:07:47;;;;;;;42.40;19.00;;;7.10;99.90;;;;;;5017527;28;20033;-76
2021/11/16 12:10:14;;;;;;;40.00;17.83;;;7.10;99.90;;;;;;5031611;28;20037;-76
2021/11/16 12:12:40;;;;;;;33.42;17.08;;;7.10;99.90;;;;;;5037317;28;20029;-75
2021/11/16 12:15:12;;;;;;;37.70;17.50;;;7.10;99.90;;;;;;5039716;28;20040;-75
2021/11/16 12:17:53;;;;;;;31.67;15.43;;;7.10;99.90;;;;;;5040003;28;20483;-75
2021/11/16 12:20:53;;;;;;;29.85;13.90;;;7.10;99.90;;;;;;5038331;28;20036;-75
2021/11/16 12:23:42;;;;;;;26.30;13.35;;;7.10;99.90;;;;;;5039085;28;20035;-75
2021/11/16 12:26:10;;;;;;;29.35;14.23;;;7.10;99.90;;;;;;5039509;28;20049;-76
2021/11/16 12:28:38;;;;;;;32.53;14.15;;;7.10;99.90;;;;;;5037010;28;20526;-75
2021/11/16 12:31:06;;;;;;;30.95;13.63;;;7.10;99.90;;;;;;5038088;28;20412;-75
2021/11/16 12:33:44;;;;;;;27.42;13.45;;;7.10;99.90;;;;;;5038210;28;20036;-76
2021/11/16 12:36:16;;;;;;;26.55;12.25;;;7.10;99.90;;;;;;5039742;28;20473;-77
2021/11/16 12:38:49;;;;;;;25.88;13.00;;;7.10;99.90;;;;;;5035710;28;20021;-76
2021/11/16 12:41:32;;;;;;;26.10;13.13;;;7.10;99.90;;;;;;5035140;28;20048;-77
2021/11/16 12:44:05;;;;;;;25.52;12.27;;;7.20;99.90;;;;;;5035558;28;20033;-77
2021/11/16 12:46:36;;;;;;;24.55;12.77;;;7.20;99.90;;;;;;5034157;28;20033;-78
2021/11/16 12:49:06;;;;;;;30.15;13.88;;;7.20;99.90;;;;;;5037345;28;20045;-76
2021/11/16 12:51:35;;;;;;;30.02;13.90;;;7.20;99.90;;;;;;5031786;28;20033;-76
2021/11/16 12:54:05;;;;;;;31.02;15.02;;;7.20;99.90;;;;;;5034627;28;20045;-77
2021/11/16 12:56:41;;;;;;;31.10;14.00;;;7.20;99.90;;;;;;5035902;28;20353;-78
2021/11/16 12:59:34;;;;;;;27.58;13.60;;;7.10;99.90;;;;;;5030932;28;20213;-77
2021/11/16 13:02:06;;;;;;;29.48;14.82;;;7.10;99.90;;;;;;5034904;28;20397;-78
2021/11/16 13:04:44;;;;;;;28.83;14.73;;;7.10;99.90;;;;;;5019163;28;20060;-77
2021/11/16 13:07:20;;;;;;;28.45;14.45;;;7.10;99.90;;;;;;5034120;28;20052;-77
2021/11/16 13:09:47;;;;;;;30.70;15.88;;;7.10;99.90;;;;;;5037375;28;20358;-78
2021/11/16 13:12:40;;;;;;;31.40;14.60;;;7.10;99.90;;;;;;5037806;28;20037;-77
2021/11/16 13:15:09;;;;;;;26.08;13.02;;;7.10;99.90;;;;;;5034334;28;20523;-77